createdAt,value
2023-04-16T00:00:29.661Z,24.3173
2023-04-16T00:01:33.561Z,24.3280
2023-04-16T00:02:37.624Z,24.3476
2023-04-16T00:03:41.815Z,24.3387
2023-04-16T00:04:45.863Z,24.3422
2023-04-16T00:05:49.746Z,24.3476
2023-04-16T00:06:53.655Z,24.3404
2023-04-16T00:07:57.530Z,24.3271
2023-04-16T00:09:01.414Z,24.3164
2023-04-16T00:10:05.333Z,24.3280
2023-04-16T00:11:09.193Z,24.3173
2023-04-16T00:12:13.083Z,24.3351
2023-04-16T00:13:16.985Z,24.3202
2023-04-16T00:14:20.877Z,24.3046
2023-04-16T00:15:24.784Z,24.3082
2023-04-16T00:16:28.995Z,24.3104
2023-04-16T00:17:32.963Z,24.2939
2023-04-16T00:18:36.841Z,24.2824
2023-04-16T00:19:40.742Z,24.3180
2023-04-16T00:20:44.615Z,24.3119
2023-04-16T00:21:48.754Z,24.2984
2023-04-16T00:22:52.652Z,24.3200
2023-04-16T00:23:56.745Z,24.3044
2023-04-16T00:25:00.646Z,24.3033
2023-04-16T00:26:04.555Z,24.3022
2023-04-16T00:27:08.440Z,24.3057
2023-04-16T00:28:12.350Z,24.2859
2023-04-16T00:29:16.236Z,24.2835
2023-04-16T00:30:20.132Z,24.2855
2023-04-16T00:31:24.350Z,24.2568
2023-04-16T00:32:28.379Z,24.2810
2023-04-16T00:33:32.287Z,24.2719
2023-04-16T00:34:32.496Z,24.2996
2023-04-16T00:35:36.392Z,24.2857
2023-04-16T00:36:40.329Z,24.2868
2023-04-16T00:37:44.206Z,24.2850
2023-04-16T00:38:48.320Z,24.2654
2023-04-16T00:39:52.231Z,24.2730
2023-04-16T00:40:56.100Z,24.2866
2023-04-16T00:41:59.995Z,24.2688
2023-04-16T00:43:03.875Z,24.2507
2023-04-16T00:44:07.791Z,24.2485
2023-04-16T00:45:11.676Z,24.2614
2023-04-16T00:46:15.610Z,24.2788
2023-04-16T00:47:19.484Z,24.2686
2023-04-16T00:48:23.378Z,24.2568
2023-04-16T00:49:27.278Z,24.2810
2023-04-16T00:50:31.160Z,24.2708
2023-04-16T00:51:35.060Z,24.2639
2023-04-16T00:52:38.936Z,24.2556
2023-04-16T00:53:42.838Z,24.2639
2023-04-16T00:54:46.720Z,24.2534
2023-04-16T00:55:50.634Z,24.2568
2023-04-16T00:56:54.503Z,24.2766
2023-04-16T00:57:58.410Z,24.2766
2023-04-16T00:59:02.328Z,24.2870
2023-04-16T01:00:06.227Z,24.2879
2023-04-16T01:01:10.138Z,24.2779
2023-04-16T01:02:14.108Z,24.2788
2023-04-16T01:03:18.038Z,24.2697
2023-04-16T01:04:22.020Z,24.2777
2023-04-16T01:05:25.898Z,24.2772
2023-04-16T01:06:29.804Z,24.2628
2023-04-16T01:07:33.690Z,24.2516
2023-04-16T01:08:37.597Z,24.2605
2023-04-16T01:09:41.520Z,24.2519
2023-04-16T01:10:45.410Z,24.2470
2023-04-16T01:11:49.310Z,24.2507
2023-04-16T01:12:53.202Z,24.2392
2023-04-16T01:13:57.105Z,24.2556
2023-04-16T01:15:00.995Z,24.2423
2023-04-16T01:16:04.960Z,24.2519
2023-04-16T01:17:09.039Z,24.2499
2023-04-16T01:18:12.967Z,24.2423
2023-04-16T01:19:16.814Z,24.2136
2023-04-16T01:20:20.713Z,24.2394
2023-04-16T01:21:24.588Z,24.2376
2023-04-16T01:22:28.507Z,24.2392
2023-04-16T01:23:32.371Z,24.2238
2023-04-16T01:24:36.287Z,24.2445
2023-04-16T01:25:40.157Z,24.2628
2023-04-16T01:26:44.058Z,24.2777
2023-04-16T01:27:47.936Z,24.2565
2023-04-16T01:28:52.157Z,24.2534
2023-04-16T01:29:56.052Z,24.2398
2023-04-16T01:30:59.946Z,24.2227
2023-04-16T01:32:04.139Z,24.2516
2023-04-16T01:33:08.031Z,24.2628
2023-04-16T01:34:11.937Z,24.2721
2023-04-16T01:35:15.821Z,24.2378
2023-04-16T01:36:19.731Z,24.1862
2023-04-16T01:37:23.617Z,24.2098
2023-04-16T01:38:27.515Z,24.2301
2023-04-16T01:39:31.602Z,24.2078
2023-04-16T01:40:35.511Z,24.1853
2023-04-16T01:41:39.406Z,24.1960
2023-04-16T01:42:43.309Z,24.1793
2023-04-16T01:43:47.423Z,24.2147
2023-04-16T01:44:51.308Z,24.2089
2023-04-16T01:45:55.207Z,24.2272
2023-04-16T01:46:59.140Z,24.2459
2023-04-16T01:48:03.084Z,24.2334
2023-04-16T01:49:07.047Z,24.2559
2023-04-16T01:50:11.012Z,24.2485
2023-04-16T01:51:14.913Z,24.2307
2023-04-16T01:52:18.795Z,24.2240
2023-04-16T01:53:22.692Z,24.2171
2023-04-16T01:54:26.805Z,24.2392
2023-04-16T01:55:30.710Z,24.2160
2023-04-16T01:56:34.588Z,24.2018
2023-04-16T01:57:38.509Z,24.2096
2023-04-16T01:58:42.379Z,24.2078
2023-04-16T01:59:46.277Z,24.2332
2023-04-16T02:00:50.167Z,24.2076
2023-04-16T02:01:54.099Z,24.2078
2023-04-16T02:02:58.069Z,24.2076
2023-04-16T02:04:02.339Z,24.1971
2023-04-16T02:05:07.097Z,24.2122
2023-04-16T02:06:07.810Z,24.2203
2023-04-16T02:07:11.730Z,24.2156
2023-04-16T02:08:15.605Z,24.2160
2023-04-16T02:09:19.718Z,24.2274
2023-04-16T02:10:31.156Z,24.2114
2023-04-16T02:11:24.457Z,24.2147
2023-04-16T02:12:28.363Z,24.2298
2023-04-16T02:13:32.281Z,24.2374
2023-04-16T02:14:36.475Z,24.2102
2023-04-16T02:15:40.347Z,24.2252
2023-04-16T02:16:40.877Z,24.2368
2023-04-16T02:17:44.854Z,24.2376
2023-04-16T02:18:48.718Z,24.2013
2023-04-16T02:19:52.646Z,24.2252
2023-04-16T02:20:56.524Z,24.2100
2023-04-16T02:22:00.428Z,24.1940
2023-04-16T02:23:04.289Z,24.2143
2023-04-16T02:24:08.203Z,24.1773
2023-04-16T02:25:12.076Z,24.2183
2023-04-16T02:26:15.980Z,24.2100
2023-04-16T02:27:19.884Z,24.1924
2023-04-16T02:28:23.758Z,24.2060
2023-04-16T02:29:27.817Z,24.2169
2023-04-16T02:30:31.719Z,24.1982
2023-04-16T02:31:35.667Z,24.2274
2023-04-16T02:32:39.574Z,24.2452
2023-04-16T02:33:43.478Z,24.1913
2023-04-16T02:34:47.381Z,24.1784
2023-04-16T02:35:51.271Z,24.1936
2023-04-16T02:36:55.171Z,24.2283
2023-04-16T02:37:59.080Z,24.2252
2023-04-16T02:39:02.949Z,24.1911
2023-04-16T02:40:06.832Z,24.1958
2023-04-16T02:41:10.736Z,24.2116
2023-04-16T02:42:14.626Z,24.2127
2023-04-16T02:43:18.524Z,24.2149
2023-04-16T02:44:22.652Z,24.1833
2023-04-16T02:45:26.538Z,24.1922
2023-04-16T02:46:30.912Z,24.1749
2023-04-16T02:47:34.823Z,24.1909
2023-04-16T02:48:38.731Z,24.1884
2023-04-16T02:49:42.622Z,24.1862
2023-04-16T02:50:46.509Z,24.1722
2023-04-16T02:51:50.615Z,24.2098
2023-04-16T02:52:54.509Z,24.1820
2023-04-16T02:53:58.394Z,24.1771
2023-04-16T02:55:02.307Z,24.1735
2023-04-16T02:56:06.210Z,24.1936
2023-04-16T02:57:10.340Z,24.1669
2023-04-16T02:58:14.235Z,24.1595
2023-04-16T02:59:18.421Z,24.1689
2023-04-16T03:00:22.334Z,24.1675
2023-04-16T03:01:26.277Z,24.1702
2023-04-16T03:02:30.263Z,24.1689
2023-04-16T03:03:34.143Z,24.2042
2023-04-16T03:04:38.458Z,24.1913
2023-04-16T03:05:42.493Z,24.1933
2023-04-16T03:06:46.381Z,24.1586
2023-04-16T03:07:50.268Z,24.1539
2023-04-16T03:08:54.151Z,24.1771
2023-04-16T03:09:58.054Z,24.1713
2023-04-16T03:11:01.934Z,24.1677
2023-04-16T03:12:06.035Z,24.1479
2023-04-16T03:13:09.930Z,24.0814
2023-04-16T03:14:14.030Z,24.0861
2023-04-16T03:15:17.969Z,24.0427
2023-04-16T03:16:22.104Z,24.0322
2023-04-16T03:17:26.028Z,24.0603
2023-04-16T03:18:29.899Z,24.0276
2023-04-16T03:19:34.004Z,24.0251
2023-04-16T03:20:37.923Z,23.9882
2023-04-16T03:21:41.837Z,24.0173
2023-04-16T03:22:45.749Z,24.0218
2023-04-16T03:23:49.647Z,24.0322
2023-04-16T03:24:53.558Z,24.0509
2023-04-16T03:25:57.486Z,24.0567
2023-04-16T03:27:01.609Z,24.0393
2023-04-16T03:28:05.513Z,24.0683
2023-04-16T03:29:05.860Z,24.0727
2023-04-16T03:30:09.758Z,24.1315
2023-04-16T03:31:13.931Z,24.1259
2023-04-16T03:32:17.858Z,24.1199
2023-04-16T03:33:21.736Z,24.1713
2023-04-16T03:34:25.626Z,24.1584
2023-04-16T03:35:29.532Z,24.1548
2023-04-16T03:36:33.674Z,24.1339
2023-04-16T03:37:37.573Z,24.1635
2023-04-16T03:38:41.484Z,24.1878
2023-04-16T03:39:45.623Z,24.1851
2023-04-16T03:40:49.486Z,24.1758
2023-04-16T03:41:53.414Z,24.1880
2023-04-16T03:42:57.300Z,24.1842
2023-04-16T03:44:01.405Z,24.2145
2023-04-16T03:45:05.316Z,24.2225
2023-04-16T03:46:09.243Z,24.2336
2023-04-16T03:47:13.367Z,24.2683
2023-04-16T03:48:17.267Z,24.2534
2023-04-16T03:49:21.358Z,24.2884
2023-04-16T03:50:25.296Z,24.2556
2023-04-16T03:51:29.149Z,24.2719
2023-04-16T03:52:33.051Z,24.2697
2023-04-16T03:53:36.921Z,24.2681
2023-04-16T03:54:40.824Z,24.2679
2023-04-16T03:55:44.692Z,24.3140
2023-04-16T03:56:48.892Z,24.2881
2023-04-16T03:57:52.811Z,24.2857
2023-04-16T03:58:56.699Z,24.2893
2023-04-16T04:00:00.569Z,24.2554
2023-04-16T04:01:04.480Z,24.2501
2023-04-16T04:02:08.461Z,24.2307
2023-04-16T04:03:12.654Z,24.2641
2023-04-16T04:04:16.911Z,24.2973
2023-04-16T04:05:20.821Z,24.2812
2023-04-16T04:06:24.744Z,24.3104
2023-04-16T04:07:28.632Z,24.3137
2023-04-16T04:08:32.532Z,24.3315
2023-04-16T04:09:36.637Z,24.3489
2023-04-16T04:10:40.530Z,24.3536
2023-04-16T04:11:44.693Z,24.3605
2023-04-16T04:12:48.568Z,24.3538
2023-04-16T04:13:52.465Z,24.3175
2023-04-16T04:14:56.349Z,24.3273
2023-04-16T04:16:00.260Z,24.2430
2023-04-16T04:17:04.143Z,24.2363
2023-04-16T04:18:08.044Z,24.2581
2023-04-16T04:19:12.338Z,24.2875
2023-04-16T04:20:16.243Z,24.3195
2023-04-16T04:21:20.153Z,24.3903
2023-04-16T04:22:24.067Z,24.3524
2023-04-16T04:23:27.948Z,24.2977
2023-04-16T04:24:28.291Z,24.2273
2023-04-16T04:25:32.172Z,24.2452
2023-04-16T04:26:36.132Z,24.1949
2023-04-16T04:27:39.971Z,24.1502
2023-04-16T04:28:43.847Z,24.1012
2023-04-16T04:29:47.958Z,24.0756
2023-04-16T04:30:51.845Z,24.0767
2023-04-16T04:31:55.993Z,24.0910
2023-04-16T04:32:59.945Z,24.0649
2023-04-16T04:34:04.128Z,24.0605
2023-04-16T04:35:08.013Z,24.0767
2023-04-16T04:36:11.891Z,24.0709
2023-04-16T04:37:15.791Z,24.0324
2023-04-16T04:38:19.675Z,24.0658
2023-04-16T04:39:23.555Z,24.1106
2023-04-16T04:40:27.478Z,24.0919
2023-04-16T04:41:31.585Z,24.0959
2023-04-16T04:42:35.479Z,24.0919
2023-04-16T04:43:39.391Z,24.0465
2023-04-16T04:44:43.301Z,24.0899
2023-04-16T04:45:47.300Z,24.0661
2023-04-16T04:46:51.459Z,24.0785
2023-04-16T04:47:55.391Z,24.0454
2023-04-16T04:48:59.502Z,24.0943
2023-04-16T04:50:03.449Z,24.1230
2023-04-16T04:51:07.333Z,24.1094
2023-04-16T04:52:11.243Z,24.0952
2023-04-16T04:53:15.200Z,24.0732
2023-04-16T04:54:19.060Z,24.0627
2023-04-16T04:55:22.968Z,24.0536
2023-04-16T04:56:26.907Z,24.0669
2023-04-16T04:57:30.809Z,24.0474
2023-04-16T04:58:34.922Z,24.0391
2023-04-16T04:59:38.812Z,24.0932
2023-04-16T05:00:42.691Z,24.0743
2023-04-16T05:01:46.881Z,24.0814
2023-04-16T05:02:50.906Z,24.0941
2023-04-16T05:03:55.139Z,24.0963
2023-04-16T05:04:59.044Z,24.0934
2023-04-16T05:06:02.930Z,24.0812
2023-04-16T05:07:06.827Z,24.0839
2023-04-16T05:08:10.710Z,24.0919
2023-04-16T05:09:14.600Z,24.0520
2023-04-16T05:10:18.482Z,24.0391
2023-04-16T05:11:22.589Z,24.0478
2023-04-16T05:12:26.480Z,24.0431
2023-04-16T05:13:30.367Z,24.0416
2023-04-16T05:14:34.257Z,24.0440
2023-04-16T05:15:38.131Z,24.0616
2023-04-16T05:16:42.019Z,24.0883
2023-04-16T05:17:45.909Z,24.0765
2023-04-16T05:18:49.838Z,24.0912
2023-04-16T05:19:53.756Z,24.1188
2023-04-16T05:20:57.619Z,24.1524
2023-04-16T05:22:01.493Z,24.1597
2023-04-16T05:23:05.405Z,24.1457
2023-04-16T05:24:09.706Z,24.1900
2023-04-16T05:25:13.591Z,24.2263
2023-04-16T05:26:17.688Z,24.2254
2023-04-16T05:27:21.561Z,24.2810
2023-04-16T05:28:25.458Z,24.2779
2023-04-16T05:29:29.341Z,24.3035
2023-04-16T05:30:33.266Z,24.3253
2023-04-16T05:31:37.334Z,24.3037
2023-04-16T05:32:41.267Z,24.3022
2023-04-16T05:33:45.421Z,24.2895
2023-04-16T05:34:49.291Z,24.2861
2023-04-16T05:35:53.204Z,24.2861
2023-04-16T05:36:57.105Z,24.3342
2023-04-16T05:38:01.007Z,24.3533
2023-04-16T05:39:05.148Z,24.3691
2023-04-16T05:40:09.031Z,24.3642
2023-04-16T05:41:12.929Z,24.3691
2023-04-16T05:42:16.848Z,24.3758
2023-04-16T05:43:20.736Z,24.3536
2023-04-16T05:44:24.661Z,24.3467
2023-04-16T05:45:28.545Z,24.3662
2023-04-16T05:46:32.771Z,24.3820
2023-04-16T05:47:36.738Z,24.3941
2023-04-16T05:48:40.813Z,24.3460
2023-04-16T05:49:44.858Z,24.3834
2023-04-16T05:50:48.729Z,24.4188
2023-04-16T05:51:52.635Z,24.3998
2023-04-16T05:52:56.537Z,24.3996
2023-04-16T05:54:00.679Z,24.4417
2023-04-16T05:55:04.602Z,24.4515
2023-04-16T05:56:08.725Z,24.4510
2023-04-16T05:57:12.624Z,24.4379
2023-04-16T05:58:16.496Z,24.4455
2023-04-16T05:59:20.385Z,24.4748
2023-04-16T06:00:24.280Z,24.4989
2023-04-16T06:01:28.425Z,24.4913
2023-04-16T06:02:32.427Z,24.4675
2023-04-16T06:03:36.720Z,24.4842
2023-04-16T06:04:40.634Z,24.5060
2023-04-16T06:05:44.571Z,24.4804
2023-04-16T06:06:48.423Z,24.4693
2023-04-16T06:07:52.323Z,24.4784
2023-04-16T06:08:56.207Z,24.4675
2023-04-16T06:10:00.110Z,24.4820
2023-04-16T06:11:04.232Z,24.4539
2023-04-16T06:12:08.158Z,24.4524
2023-04-16T06:13:12.054Z,24.4958
2023-04-16T06:14:16.165Z,24.4461
2023-04-16T06:15:20.069Z,24.4673
2023-04-16T06:16:24.015Z,24.4773
2023-04-16T06:17:27.915Z,24.4650
2023-04-16T06:18:32.030Z,24.4724
2023-04-16T06:19:35.916Z,24.4679
2023-04-16T06:20:39.824Z,24.4893
2023-04-16T06:21:43.730Z,24.5220
2023-04-16T06:22:47.603Z,24.5485
2023-04-16T06:23:51.853Z,24.5167
2023-04-16T06:24:55.746Z,24.5552
2023-04-16T06:25:59.624Z,24.5176
2023-04-16T06:27:03.664Z,24.5262
2023-04-16T06:28:07.563Z,24.5356
2023-04-16T06:29:11.765Z,24.5267
2023-04-16T06:30:15.724Z,24.5202
2023-04-16T06:31:19.879Z,24.5407
2023-04-16T06:32:23.816Z,24.5449
2023-04-16T06:33:27.725Z,24.5167
2023-04-16T06:34:31.623Z,24.5084
2023-04-16T06:35:35.509Z,24.5327
2023-04-16T06:36:39.408Z,24.5405
2023-04-16T06:37:43.306Z,24.5632
2023-04-16T06:38:47.178Z,24.5565
2023-04-16T06:39:51.053Z,24.5569
2023-04-16T06:40:55.158Z,24.5988
2023-04-16T06:41:59.055Z,24.6021
2023-04-16T06:43:02.935Z,24.6221
2023-04-16T06:44:06.830Z,24.6023
2023-04-16T06:45:10.699Z,24.6204
2023-04-16T06:46:14.828Z,24.6268
2023-04-16T06:47:18.766Z,24.6337
2023-04-16T06:48:22.910Z,24.6315
2023-04-16T06:49:26.814Z,24.5952
2023-04-16T06:50:30.696Z,24.6359
2023-04-16T06:51:34.587Z,24.6246
2023-04-16T06:52:38.490Z,24.6012
2023-04-16T06:53:42.616Z,24.6023
2023-04-16T06:54:46.506Z,24.5756
2023-04-16T06:55:50.390Z,24.5616
2023-04-16T06:56:54.308Z,24.5727
2023-04-16T06:57:58.198Z,24.5307
2023-04-16T06:59:02.344Z,24.5171
2023-04-16T07:00:06.249Z,24.5169
2023-04-16T07:01:10.405Z,24.5429
2023-04-16T07:02:14.380Z,24.5474
2023-04-16T07:03:18.518Z,24.5222
2023-04-16T07:04:22.491Z,24.5418
2023-04-16T07:05:26.377Z,24.5207
2023-04-16T07:06:30.286Z,24.5131
2023-04-16T07:07:34.184Z,24.5407
2023-04-16T07:08:38.418Z,24.5298
2023-04-16T07:09:42.301Z,24.5124
2023-04-16T07:10:46.415Z,24.5169
2023-04-16T07:11:50.322Z,24.5458
2023-04-16T07:12:54.209Z,24.5474
2023-04-16T07:13:58.120Z,24.5289
2023-04-16T07:15:01.986Z,24.5276
2023-04-16T07:16:05.910Z,24.5345
2023-04-16T07:17:09.778Z,24.5765
2023-04-16T07:18:13.958Z,24.5685
2023-04-16T07:19:17.998Z,24.5545
2023-04-16T07:20:21.895Z,24.5661
2023-04-16T07:21:25.793Z,24.5638
2023-04-16T07:22:29.696Z,24.5532
2023-04-16T07:23:33.633Z,24.5828
2023-04-16T07:24:37.513Z,24.5963
2023-04-16T07:25:41.481Z,24.6023
2023-04-16T07:26:45.384Z,24.5828
2023-04-16T07:27:49.273Z,24.5587
2023-04-16T07:28:53.182Z,24.5950
2023-04-16T07:29:57.084Z,24.5741
2023-04-16T07:31:00.974Z,24.5872
2023-04-16T07:32:04.990Z,24.5634
2023-04-16T07:33:09.050Z,24.5636
2023-04-16T07:34:12.913Z,24.5732
2023-04-16T07:35:16.823Z,24.5885
2023-04-16T07:36:20.712Z,24.5828
2023-04-16T07:37:24.615Z,24.5908
2023-04-16T07:38:28.754Z,24.5794
2023-04-16T07:39:32.688Z,24.5656
2023-04-16T07:40:36.704Z,24.5741
2023-04-16T07:41:40.591Z,24.5667
2023-04-16T07:42:44.452Z,24.5852
2023-04-16T07:43:48.334Z,24.5977
2023-04-16T07:44:52.240Z,24.5727
2023-04-16T07:45:56.490Z,24.5743
2023-04-16T07:47:00.464Z,24.5672
2023-04-16T07:48:04.774Z,24.5739
2023-04-16T07:49:08.876Z,24.5716
2023-04-16T07:50:12.863Z,24.5756
2023-04-16T07:51:16.759Z,24.5863
2023-04-16T07:52:20.668Z,24.5894
2023-04-16T07:53:24.555Z,24.5908
2023-04-16T07:54:29.175Z,24.5990
2023-04-16T07:55:33.108Z,24.6104
2023-04-16T07:56:37.052Z,24.6208
2023-04-16T07:57:40.917Z,24.6068
2023-04-16T07:58:44.834Z,24.6197
2023-04-16T07:59:48.705Z,24.6239
2023-04-16T08:00:52.815Z,24.6195
2023-04-16T08:01:56.727Z,24.6244
2023-04-16T08:03:00.883Z,24.6397
2023-04-16T08:04:04.995Z,24.6264
2023-04-16T08:05:08.959Z,24.6255
2023-04-16T08:06:12.838Z,24.6402
2023-04-16T08:07:16.753Z,24.6504
2023-04-16T08:08:16.915Z,24.6664
2023-04-16T08:09:20.803Z,24.6642
2023-04-16T08:10:24.899Z,24.6517
2023-04-16T08:11:28.816Z,24.6506
2023-04-16T08:12:32.715Z,24.6887
2023-04-16T08:13:36.614Z,24.6840
2023-04-16T08:14:40.482Z,24.6640
2023-04-16T08:15:44.634Z,24.6629
2023-04-16T08:16:48.533Z,24.6642
2023-04-16T08:17:52.756Z,24.6840
2023-04-16T08:18:56.609Z,24.6724
2023-04-16T08:20:00.506Z,24.7098
2023-04-16T08:21:04.392Z,24.7156
2023-04-16T08:22:08.316Z,24.7359
2023-04-16T08:23:12.195Z,24.7158
2023-04-16T08:24:16.127Z,24.6767
2023-04-16T08:25:20.000Z,24.6653
2023-04-16T08:26:24.002Z,24.6738
2023-04-16T08:27:27.901Z,24.7145
2023-04-16T08:28:32.024Z,24.6931
2023-04-16T08:29:35.935Z,24.6898
2023-04-16T08:30:39.841Z,24.6971
2023-04-16T08:31:43.775Z,24.7000
2023-04-16T08:32:50.045Z,24.6938
2023-04-16T08:33:48.852Z,24.6859
2023-04-16T08:34:52.753Z,24.6925
2023-04-16T08:35:56.991Z,24.7214
2023-04-16T08:37:00.994Z,24.7212
2023-04-16T08:38:04.912Z,24.7156
2023-04-16T08:39:08.913Z,24.6838
2023-04-16T08:40:13.083Z,24.6851
2023-04-16T08:41:17.218Z,24.6889
2023-04-16T08:42:21.131Z,24.6960
2023-04-16T08:43:25.013Z,24.6689
2023-04-16T08:44:28.939Z,24.6925
2023-04-16T08:45:33.118Z,24.7016
2023-04-16T08:46:37.024Z,24.7158
2023-04-16T08:47:40.911Z,24.7261
2023-04-16T08:48:44.787Z,24.7483
2023-04-16T08:49:48.721Z,24.7341
2023-04-16T08:50:52.580Z,24.7376
2023-04-16T08:51:54.080Z,24.7225
2023-04-16T08:52:58.213Z,24.7521
2023-04-16T08:54:02.310Z,24.8064
2023-04-16T08:55:06.221Z,24.8017
2023-04-16T08:56:10.104Z,24.7712
2023-04-16T08:57:13.987Z,24.7497
2023-04-16T08:58:18.202Z,24.7354
2023-04-16T08:59:22.089Z,24.7472
2023-04-16T09:00:26.218Z,24.7746
2023-04-16T09:01:30.145Z,24.7695
2023-04-16T09:02:34.134Z,24.7639
2023-04-16T09:03:38.345Z,24.8180
2023-04-16T09:04:42.383Z,24.8531
2023-04-16T09:05:46.280Z,24.7850
2023-04-16T09:06:50.163Z,24.7581
2023-04-16T09:07:54.059Z,24.8026
2023-04-16T09:08:57.953Z,24.7957
2023-04-16T09:10:01.914Z,24.7735
2023-04-16T09:11:05.814Z,24.8006
2023-04-16T09:12:09.700Z,24.7997
2023-04-16T09:13:13.596Z,24.8211
2023-04-16T09:14:17.482Z,24.8378
2023-04-16T09:15:21.598Z,24.8391
2023-04-16T09:16:25.534Z,24.8258
2023-04-16T09:17:29.497Z,24.8413
2023-04-16T09:18:33.372Z,24.8807
2023-04-16T09:19:37.270Z,24.8558
2023-04-16T09:20:41.320Z,24.8576
2023-04-16T09:21:45.207Z,24.8247
2023-04-16T09:22:49.104Z,24.8356
2023-04-16T09:23:52.984Z,24.8224
2023-04-16T09:24:56.885Z,24.8280
2023-04-16T09:26:00.962Z,24.8213
2023-04-16T09:27:04.862Z,24.8309
2023-04-16T09:28:09.016Z,24.8189
2023-04-16T09:29:12.887Z,24.8269
2023-04-16T09:30:16.793Z,24.8554
2023-04-16T09:31:21.013Z,24.8830
2023-04-16T09:32:24.911Z,24.8823
2023-04-16T09:33:28.808Z,24.9088
2023-04-16T09:34:32.703Z,24.9034
2023-04-16T09:35:36.849Z,24.8947
2023-04-16T09:36:40.737Z,24.9114
2023-04-16T09:37:44.875Z,24.9310
2023-04-16T09:38:48.751Z,24.8996
2023-04-16T09:39:52.655Z,24.9068
2023-04-16T09:40:56.723Z,24.9219
2023-04-16T09:42:00.613Z,24.8927
2023-04-16T09:43:05.018Z,24.9183
2023-04-16T09:44:08.918Z,24.9012
2023-04-16T09:45:12.791Z,24.9045
2023-04-16T09:46:16.704Z,24.9188
2023-04-16T09:47:20.598Z,24.8912
2023-04-16T09:48:24.476Z,24.9012
2023-04-16T09:49:28.407Z,24.8881
2023-04-16T09:50:32.315Z,24.8741
2023-04-16T09:51:36.220Z,24.8941
2023-04-16T09:52:40.341Z,24.8727
2023-04-16T09:53:44.220Z,24.9003
2023-04-16T09:54:48.116Z,24.9368
2023-04-16T09:55:52.248Z,24.9393
2023-04-16T09:56:56.161Z,24.9266
2023-04-16T09:58:00.084Z,24.8974
2023-04-16T09:59:04.006Z,24.9152
2023-04-16T10:00:07.926Z,24.8923
2023-04-16T10:01:12.006Z,24.9045
2023-04-16T10:02:16.560Z,24.9486
2023-04-16T10:03:20.657Z,24.9255
2023-04-16T10:04:24.572Z,24.9299
2023-04-16T10:05:28.525Z,24.9266
2023-04-16T10:06:32.407Z,24.9177
2023-04-16T10:07:36.528Z,24.9430
2023-04-16T10:08:40.408Z,24.9321
2023-04-16T10:09:44.272Z,24.9475
2023-04-16T10:10:48.153Z,24.9486
2023-04-16T10:11:52.051Z,24.9608
2023-04-16T10:12:56.188Z,24.9524
2023-04-16T10:14:00.172Z,24.9395
2023-04-16T10:15:04.311Z,24.9290
2023-04-16T10:16:08.201Z,24.9286
2023-04-16T10:17:12.117Z,24.9450
2023-04-16T10:18:16.008Z,24.9255
2023-04-16T10:19:19.929Z,24.9235
2023-04-16T10:20:23.823Z,24.9372
2023-04-16T10:21:27.740Z,24.9301
2023-04-16T10:22:31.614Z,24.9361
2023-04-16T10:23:35.508Z,24.9628
2023-04-16T10:24:39.417Z,24.9537
2023-04-16T10:25:43.545Z,24.9604
2023-04-16T10:26:47.428Z,24.9537
2023-04-16T10:27:51.560Z,24.9826
2023-04-16T10:28:55.456Z,24.9486
2023-04-16T10:29:59.342Z,24.9486
2023-04-16T10:31:03.281Z,24.9782
2023-04-16T10:32:07.159Z,24.9755
2023-04-16T10:33:11.093Z,24.9862
2023-04-16T10:34:14.964Z,24.9971
2023-04-16T10:35:18.870Z,24.9969
2023-04-16T10:36:22.779Z,24.9973
2023-04-16T10:37:26.976Z,24.9969
2023-04-16T10:38:30.880Z,25.0002
2023-04-16T10:39:34.805Z,24.9791
2023-04-16T10:40:38.725Z,25.0073
2023-04-16T10:41:42.628Z,25.0196
2023-04-16T10:42:46.535Z,25.0082
2023-04-16T10:43:50.450Z,25.0044
2023-04-16T10:44:54.342Z,25.0287
2023-04-16T10:45:58.482Z,25.0185
2023-04-16T10:47:02.418Z,25.0396
2023-04-16T10:48:06.350Z,25.0189
2023-04-16T10:49:10.319Z,25.0496
2023-04-16T10:50:14.545Z,25.0518
2023-04-16T10:51:18.466Z,25.0507
2023-04-16T10:52:22.393Z,25.0530
2023-04-16T10:53:26.269Z,25.0590
2023-04-16T10:54:30.143Z,25.0975
2023-04-16T10:55:34.025Z,25.1046
2023-04-16T10:56:37.908Z,25.0975
2023-04-16T10:57:41.787Z,25.0814
2023-04-16T10:58:45.673Z,25.0674
2023-04-16T10:59:49.902Z,25.0576
2023-04-16T11:00:53.810Z,25.0574
2023-04-16T11:01:57.798Z,25.0821
2023-04-16T11:03:01.768Z,25.0881
2023-04-16T11:04:05.793Z,25.0868
2023-04-16T11:05:09.755Z,25.0826
2023-04-16T11:06:13.676Z,25.0988
2023-04-16T11:07:17.568Z,25.0930
2023-04-16T11:08:21.440Z,25.1030
2023-04-16T11:09:25.347Z,25.1086
2023-04-16T11:10:29.459Z,25.0812
2023-04-16T11:11:33.375Z,25.0826
2023-04-16T11:12:37.399Z,25.1099
2023-04-16T11:13:43.133Z,25.1153
2023-04-16T11:14:42.124Z,25.1037
2023-04-16T11:15:46.274Z,25.0988
2023-04-16T11:16:50.159Z,25.0930
2023-04-16T11:17:54.152Z,25.1184
2023-04-16T11:18:58.027Z,25.1150
2023-04-16T11:20:02.136Z,25.1024
2023-04-16T11:21:06.042Z,25.1008
2023-04-16T11:22:09.960Z,25.0861
2023-04-16T11:23:10.310Z,25.1005
2023-04-16T11:24:14.254Z,25.1046
2023-04-16T11:25:18.135Z,25.1277
2023-04-16T11:26:22.016Z,25.0997
2023-04-16T11:27:25.915Z,25.1077
2023-04-16T11:28:29.801Z,25.1010
2023-04-16T11:29:33.689Z,25.1262
2023-04-16T11:30:37.584Z,25.1137
2023-04-16T11:31:41.495Z,25.0892
2023-04-16T11:32:45.419Z,25.1030
2023-04-16T11:33:49.276Z,25.0964
2023-04-16T11:34:53.387Z,25.0872
2023-04-16T11:35:57.279Z,25.0926
2023-04-16T11:37:01.169Z,25.1162
2023-04-16T11:38:05.317Z,25.1173
2023-04-16T11:39:09.323Z,25.1244
2023-04-16T11:40:13.624Z,25.1291
2023-04-16T11:41:17.480Z,25.1113
2023-04-16T11:42:21.613Z,25.0999
2023-04-16T11:43:25.504Z,25.0930
2023-04-16T11:44:29.386Z,25.1266
2023-04-16T11:45:33.282Z,25.1035
2023-04-16T11:46:37.196Z,25.0930
2023-04-16T11:47:41.123Z,25.1055
2023-04-16T11:48:45.045Z,25.1066
2023-04-16T11:49:48.953Z,25.0930
2023-04-16T11:50:52.826Z,25.1257
2023-04-16T11:51:56.742Z,25.1211
2023-04-16T11:53:00.829Z,25.1093
2023-04-16T11:54:04.733Z,25.1206
2023-04-16T11:55:08.845Z,25.1293
2023-04-16T11:56:12.743Z,25.1222
2023-04-16T11:57:16.652Z,25.1244
2023-04-16T11:58:20.541Z,25.1411
2023-04-16T11:59:21.384Z,25.1374
2023-04-16T12:00:25.270Z,25.1491
2023-04-16T12:01:29.178Z,25.1244
2023-04-16T12:02:33.148Z,25.1351
2023-04-16T12:03:37.339Z,25.1255
2023-04-16T12:04:41.485Z,25.1451
2023-04-16T12:05:45.387Z,25.1478
2023-04-16T12:06:49.293Z,25.1291
2023-04-16T12:07:53.478Z,25.1244
2023-04-16T12:08:57.366Z,25.1544
2023-04-16T12:10:01.276Z,25.1326
2023-04-16T12:11:05.174Z,25.1524
2023-04-16T12:12:09.319Z,25.1865
2023-04-16T12:13:13.218Z,25.1889
2023-04-16T12:14:17.121Z,25.1542
2023-04-16T12:15:21.249Z,25.1900
2023-04-16T12:16:25.157Z,25.1854
2023-04-16T12:17:29.084Z,25.2007
2023-04-16T12:18:32.935Z,25.1865
2023-04-16T12:19:36.842Z,25.1923
2023-04-16T12:20:40.723Z,25.1676
2023-04-16T12:21:44.604Z,25.1840
2023-04-16T12:22:48.751Z,25.1511
2023-04-16T12:23:52.627Z,25.1693
2023-04-16T12:24:56.757Z,25.1478
2023-04-16T12:26:00.646Z,25.1522
2023-04-16T12:27:04.552Z,25.1555
2023-04-16T12:28:08.421Z,25.1827
2023-04-16T12:29:12.313Z,25.1638
2023-04-16T12:30:16.432Z,25.1429
2023-04-16T12:31:20.420Z,25.1326
2023-04-16T12:32:24.349Z,25.1266
2023-04-16T12:33:28.298Z,25.1373
2023-04-16T12:34:46.765Z,25.1796
2023-04-16T12:35:36.929Z,25.1889
2023-04-16T12:36:40.827Z,25.1729
2023-04-16T12:37:44.956Z,25.1947
2023-04-16T12:38:48.862Z,25.1878
2023-04-16T12:39:53.001Z,25.1771
2023-04-16T12:40:57.332Z,25.1395
2023-04-16T12:42:01.334Z,25.2007
2023-04-16T12:43:05.518Z,25.2350
2023-04-16T12:44:09.392Z,25.2192
2023-04-16T12:45:13.278Z,25.2283
2023-04-16T12:46:17.208Z,25.2339
2023-04-16T12:47:21.108Z,25.2196
2023-04-16T12:48:24.964Z,25.2183
2023-04-16T12:49:28.861Z,25.2076
2023-04-16T12:50:32.751Z,25.2299
2023-04-16T12:51:36.646Z,25.2512
2023-04-16T12:52:40.537Z,25.2864